Hlavní strana
METAR-TAF:

METAR-TAF

Letiště :

Anapa, Rusko

zeměpisná šířka: 44-54N, zeměpisná délka: 037-19E, výška: 53 m

Aktuální stav počasí

Zpráva byla vytvořena před 35 minutami, v 04:00 UTC
Východoseverovýchodní vítr 6 kt
Teplota 5°C
Vlhkost vzduchu 93%
Tlak 1023 hPa
Viditelnost 10 km a více
Skoro jasno

METAR: URKA 050400Z 07003MPS 9999 FEW/// 05/04 Q1023 R22/010070 TEMPO 1000 BR SCT004 RMK QFE763/1017

Čas: 08:35 (04:35 UTC)

Předpověď počasí

Zpráva byla vytvořena před 2 hodinami a 37 minutami, v 01:58 UTC
Předpověď platná od 05 v 03 UTC do 06 v 03 UTC
Východní vítr 6 kt s nárazy do 16 kt
Viditelnost: 6000 m
Oblačno až skoro zataženo ve výšce 1600 ft
Od 05 v 0600 UTC
Severoseverovýchodní vítr 16 kt s nárazy do 25 kt
Viditelnost 10 km a více
Polojasno ve výšce 3000 ft
Dočasný
od 05 v 09 UTC do 06 v 03 UTC
Severovýchodní vítr 23 kt s nárazy do 35 kt

TAF: URKA 050158Z 0503/0603 08003G08MPS 6000 BKN016 FM050600 03008G13MPS 9999 SCT030 TEMPO 0509/0603 05012G18MPS

Stav a předpovědi počasí z více než 4 000 letišť (zprávy METAR a TAF).

Červené a žluté tečky na mapě představují dostupné meteorologické stanice.

Když kurzor umístíte na tečku, zobrazí se název stanice.

Pak kliknutím zobrazíte stav a předpověď počasí.

Chcete-li změnit mapu, kliknutím na zelené tlačítko se znaménkem +mapu přiblížíte, kliknutím na zelené tlačítko se znaménkem – mapu oddálíte a kliknutím na zelené šipky přejdete na sousední mapy.


METAR-TAF: